LHPP Airport Information

Runway Information
Runway 16 Length 4922 ft width 98 ft
Elevation 650 ft Threshold 0 ft Heading 157
Runway 34 Length 4922 ft Width 98 ft
Elevation 640 ft Threshold 0 ft Heading 337
Airport Frequencies
Type AFIS Name POGANY INF Frequency 126.9 MHZ
Airport Navaids
Type NDB Name Pecs-Pogany Frequency 412 KHZ
Airport Weather Information & NOTAM
ADDS - METARS form results

(1852 UTC 22 March 2019)
Data provider http://aviationweather.gov/metar/data/
 
Forecast for: LHPP (PECS-POGANY , HU)
Text: TAF LHPP 221415Z 2215/2224 VRB03KT CAVOK
Forecast period: 1500 UTC 22 March 2019 to 0000 UTC 23 March 2019
Forecast type: FROM: standard forecast or significant change
Winds: variable direction winds at 3 MPH (3 knots; 1.5 m/s)
Visibility: 6 or more miles 10+ km)
Ceiling: unknown
Clouds: missing
Weather: NSW  (no significant weather)